Swaledale, Iowa
Current Conditions -  °F | °C
As of 1:53 AM on Monday 24 Nov 2014 (Local Time) from KMCW Reporting Station
Overcast Overcast  
Wind Chill: 14°   Ceiling: 1200
Heat Index: 28°   Visibility: 10mi
Dew Point: 25°   Wind: 24mph
Humidity: 88%   Direction: 310°NW
Pressure: 29.33"   Gusts: 38mph
Location:  42.98°N, 93.32°W
Report Text: KMCW 240753Z AUTO 31021G33KT 10SM OVC012 M02/M04 A2933 RMK AO2 PK WND 32034/0703 UPB26E34SNE26 SLP935 P0000 T10221039
Loading
Personal Weather Stations






























Interactive Weather Map New forecast layout! Learn more

10-Day Weather Forecast

Advertisements
Track Severe Weather on mobile